sensor_id;sensor_type;location;lat;lon;timestamp;pressure;altitude;pressure_sealevel;temperature;humidity
21838;BME280;11081;45.946;6.140;2023-04-03T00:00:41;95303.53;;;7.89;100.00
21838;BME280;11081;45.946;6.140;2023-04-03T00:03:09;95306.94;;;7.97;100.00
21838;BME280;11081;45.946;6.140;2023-04-03T00:05:37;95310.75;;;8.01;100.00
21838;BME280;11081;45.946;6.140;2023-04-03T00:08:06;95311.16;;;7.98;100.00
21838;BME280;11081;45.946;6.140;2023-04-03T00:10:36;95310.94;;;7.92;100.00
21838;BME280;11081;45.946;6.140;2023-04-03T00:13:05;95308.72;;;7.89;100.00
21838;BME280;11081;45.946;6.140;2023-04-03T00:15:34;95306.34;;;7.81;100.00
21838;BME280;11081;45.946;6.140;2023-04-03T00:18:03;95298.34;;;7.76;100.00
21838;BME280;11081;45.946;6.140;2023-04-03T00:20:31;95294.34;;;7.74;100.00
21838;BME280;11081;45.946;6.140;2023-04-03T00:23:01;95292.31;;;7.69;100.00
21838;BME280;11081;45.946;6.140;2023-04-03T00:25:31;95297.91;;;7.66;99.65
21838;BME280;11081;45.946;6.140;2023-04-03T00:28:00;95303.91;;;7.60;99.38
21838;BME280;11081;45.946;6.140;2023-04-03T00:30:28;95303.53;;;7.63;98.62
21838;BME280;11081;45.946;6.140;2023-04-03T00:32:57;95299.91;;;7.64;98.91
21838;BME280;11081;45.946;6.140;2023-04-03T00:35:25;95297.13;;;7.59;98.05
21838;BME280;11081;45.946;6.140;2023-04-03T00:37:55;95299.09;;;7.44;98.42
21838;BME280;11081;45.946;6.140;2023-04-03T00:40:25;95294.31;;;7.41;99.28
21838;BME280;11081;45.946;6.140;2023-04-03T00:42:58;95289.09;;;7.34;99.24
21838;BME280;11081;45.946;6.140;2023-04-03T00:45:33;95285.09;;;7.31;99.38
21838;BME280;11081;45.946;6.140;2023-04-03T00:48:04;95286.31;;;7.42;99.13
21838;BME280;11081;45.946;6.140;2023-04-03T00:50:35;95284.72;;;7.48;97.47
21838;BME280;11081;45.946;6.140;2023-04-03T00:53:06;95286.72;;;7.46;97.82
21838;BME280;11081;45.946;6.140;2023-04-03T00:55:36;95287.91;;;7.37;97.59
21838;BME280;11081;45.946;6.140;2023-04-03T00:58:07;95283.88;;;7.27;97.94
21838;BME280;11081;45.946;6.140;2023-04-03T01:00:37;95289.91;;;7.34;97.95
21838;BME280;11081;45.946;6.140;2023-04-03T01:03:07;95274.75;;;7.51;97.36
21838;BME280;11081;45.946;6.140;2023-04-03T01:05:37;95281.53;;;7.59;97.58
21838;BME280;11081;45.946;6.140;2023-04-03T01:08:06;95279.53;;;7.61;97.77
21838;BME280;11081;45.946;6.140;2023-04-03T01:10:34;95280.75;;;7.65;98.57
21838;BME280;11081;45.946;6.140;2023-04-03T01:13:18;95279.16;;;7.71;98.87
21838;BME280;11081;45.946;6.140;2023-04-03T01:15:47;95275.16;;;7.68;99.23
21838;BME280;11081;45.946;6.140;2023-04-03T01:18:15;95272.19;;;7.71;99.82
21838;BME280;11081;45.946;6.140;2023-04-03T01:24:05;95272.56;;;7.61;99.63
21838;BME280;11081;45.946;6.140;2023-04-03T01:26:38;95277.53;;;7.63;98.93
21838;BME280;11081;45.946;6.140;2023-04-03T01:29:08;95280.34;;;7.61;98.45
21838;BME280;11081;45.946;6.140;2023-04-03T01:31:59;95261.97;;;7.70;97.83
21838;BME280;11081;45.946;6.140;2023-04-03T01:34:28;95270.78;;;7.75;98.31
21838;BME280;11081;45.946;6.140;2023-04-03T01:36:57;95252.38;;;7.83;98.30
21838;BME280;11081;45.946;6.140;2023-04-03T01:39:25;95260.38;;;7.82;97.91
21838;BME280;11081;45.946;6.140;2023-04-03T01:41:53;95263.97;;;7.74;98.15
21838;BME280;11081;45.946;6.140;2023-04-03T01:44:32;95256.78;;;7.76;98.34
21838;BME280;11081;45.946;6.140;2023-04-03T01:47:05;95262.34;;;7.67;100.00
21838;BME280;11081;45.946;6.140;2023-04-03T01:49:33;95265.56;;;7.62;99.99
21838;BME280;11081;45.946;6.140;2023-04-03T01:52:01;95259.56;;;7.42;100.00
21838;BME280;11081;45.946;6.140;2023-04-03T01:54:30;95258.34;;;7.31;100.00
21838;BME280;11081;45.946;6.140;2023-04-03T01:56:57;95252.72;;;7.27;100.00
21838;BME280;11081;45.946;6.140;2023-04-03T01:59:26;95254.56;;;7.33;100.00
21838;BME280;11081;45.946;6.140;2023-04-03T02:01:54;95254.56;;;7.40;100.00
21838;BME280;11081;45.946;6.140;2023-04-03T02:04:24;95245.75;;;7.48;100.00
21838;BME280;11081;45.946;6.140;2023-04-03T02:06:52;95252.78;;;7.54;99.69
21838;BME280;11081;45.946;6.140;2023-04-03T02:09:20;95255.16;;;7.49;99.65
21838;BME280;11081;45.946;6.140;2023-04-03T02:11:48;95243.56;;;7.45;100.00
21838;BME280;11081;45.946;6.140;2023-04-03T02:14:16;95248.75;;;7.45;100.00
21838;BME280;11081;45.946;6.140;2023-04-03T02:16:45;95248.97;;;7.37;99.51
21838;BME280;11081;45.946;6.140;2023-04-03T02:19:13;95248.75;;;7.31;99.83
21838;BME280;11081;45.946;6.140;2023-04-03T02:21:42;95246.38;;;7.37;100.00
21838;BME280;11081;45.946;6.140;2023-04-03T02:24:11;95247.16;;;7.44;99.78
21838;BME280;11081;45.946;6.140;2023-04-03T02:26:39;95239.56;;;7.49;99.58
21838;BME280;11081;45.946;6.140;2023-04-03T02:29:07;95244.00;;;7.55;99.38
21838;BME280;11081;45.946;6.140;2023-04-03T02:31:35;95234.00;;;7.52;99.39
21838;BME280;11081;45.946;6.140;2023-04-03T02:34:04;95234.38;;;7.49;99.73
21838;BME280;11081;45.946;6.140;2023-04-03T02:36:33;95237.97;;;7.48;99.43
21838;BME280;11081;45.946;6.140;2023-04-03T02:39:06;95235.00;;;7.51;99.85
21838;BME280;11081;45.946;6.140;2023-04-03T02:41:34;95233.59;;;7.48;99.92
21838;BME280;11081;45.946;6.140;2023-04-03T02:44:09;95231.19;;;7.47;100.00
21838;BME280;11081;45.946;6.140;2023-04-03T02:46:38;95231.78;;;7.49;100.00
21838;BME280;11081;45.946;6.140;2023-04-03T02:49:06;95234.00;;;7.52;99.79
21838;BME280;11081;45.946;6.140;2023-04-03T02:51:34;95235.00;;;7.51;99.52
21838;BME280;11081;45.946;6.140;2023-04-03T02:54:02;95233.19;;;7.45;99.54
21838;BME280;11081;45.946;6.140;2023-04-03T02:56:35;95230.41;;;7.40;99.66
21838;BME280;11081;45.946;6.140;2023-04-03T02:59:03;95238.78;;;7.42;99.91
21838;BME280;11081;45.946;6.140;2023-04-03T03:01:33;95225.41;;;7.45;99.75
21838;BME280;11081;45.946;6.140;2023-04-03T03:04:03;95234.38;;;7.49;99.55
21838;BME280;11081;45.946;6.140;2023-04-03T03:06:31;95230.41;;;7.53;99.42
21838;BME280;11081;45.946;6.140;2023-04-03T03:08:59;95230.00;;;7.56;99.53
21838;BME280;11081;45.946;6.140;2023-04-03T03:11:27;95223.63;;;7.58;99.40
21838;BME280;11081;45.946;6.140;2023-04-03T03:13:56;95228.00;;;7.58;99.49
21838;BME280;11081;45.946;6.140;2023-04-03T03:16:25;95226.59;;;7.62;100.00
21838;BME280;11081;45.946;6.140;2023-04-03T03:18:53;95221.59;;;7.67;99.65
21838;BME280;11081;45.946;6.140;2023-04-03T03:21:23;95222.81;;;7.71;99.52
21838;BME280;11081;45.946;6.140;2023-04-03T03:23:51;95220.81;;;7.73;99.65
21838;BME280;11081;45.946;6.140;2023-04-03T03:26:19;95226.03;;;7.73;99.87
21838;BME280;11081;45.946;6.140;2023-04-03T03:28:47;95224.41;;;7.72;99.05
21838;BME280;11081;45.946;6.140;2023-04-03T03:31:17;95228.81;;;7.72;99.41
21838;BME280;11081;45.946;6.140;2023-04-03T03:33:45;95221.81;;;7.72;98.62
21838;BME280;11081;45.946;6.140;2023-04-03T03:36:13;95226.41;;;7.77;98.50
21838;BME280;11081;45.946;6.140;2023-04-03T03:38:42;95216.03;;;7.77;97.51
21838;BME280;11081;45.946;6.140;2023-04-03T03:41:10;95221.59;;;7.80;98.01
21838;BME280;11081;45.946;6.140;2023-04-03T03:43:40;95215.63;;;7.73;98.01
21838;BME280;11081;45.946;6.140;2023-04-03T03:46:08;95220.03;;;7.73;98.32
21838;BME280;11081;45.946;6.140;2023-04-03T03:48:37;95217.22;;;7.74;98.38
21838;BME280;11081;45.946;6.140;2023-04-03T03:51:05;95216.41;;;7.67;98.79
21838;BME280;11081;45.946;6.140;2023-04-03T03:53:36;95212.03;;;7.61;99.67
21838;BME280;11081;45.946;6.140;2023-04-03T03:56:07;95210.84;;;7.57;99.69
21838;BME280;11081;45.946;6.140;2023-04-03T03:58:38;95215.03;;;7.58;99.49
21838;BME280;11081;45.946;6.140;2023-04-03T04:01:07;95199.66;;;7.50;99.56
21838;BME280;11081;45.946;6.140;2023-04-03T04:03:42;95220.81;;;7.47;99.84
21838;BME280;11081;45.946;6.140;2023-04-03T04:06:15;95215.59;;;7.47;99.63
21838;BME280;11081;45.946;6.140;2023-04-03T04:08:43;95217.63;;;7.58;99.57
21838;BME280;11081;45.946;6.140;2023-04-03T04:11:12;95212.63;;;7.63;99.51
21838;BME280;11081;45.946;6.140;2023-04-03T04:13:42;95211.63;;;7.64;99.04
21838;BME280;11081;45.946;6.140;2023-04-03T04:16:12;95215.22;;;7.63;98.70
21838;BME280;11081;45.946;6.140;2023-04-03T04:18:40;95212.03;;;7.61;98.69
21838;BME280;11081;45.946;6.140;2023-04-03T04:21:09;95217.22;;;7.61;99.07
21838;BME280;11081;45.946;6.140;2023-04-03T04:23:39;95211.03;;;7.62;99.06
21838;BME280;11081;45.946;6.140;2023-04-03T04:26:07;95217.22;;;7.61;98.94
21838;BME280;11081;45.946;6.140;2023-04-03T04:28:37;95221.41;;;7.62;99.03
21838;BME280;11081;45.946;6.140;2023-04-03T04:31:06;95221.81;;;7.65;99.10
21838;BME280;11081;45.946;6.140;2023-04-03T04:33:35;95216.00;;;7.70;98.56
21838;BME280;11081;45.946;6.140;2023-04-03T04:36:05;95217.63;;;7.71;98.88
21838;BME280;11081;45.946;6.140;2023-04-03T04:38:36;95214.41;;;7.69;98.38
21838;BME280;11081;45.946;6.140;2023-04-03T04:41:05;95208.44;;;7.75;98.05
21838;BME280;11081;45.946;6.140;2023-04-03T04:43:34;95216.41;;;7.80;97.88
21838;BME280;11081;45.946;6.140;2023-04-03T04:46:03;95201.22;;;7.84;96.80
21838;BME280;11081;45.946;6.140;2023-04-03T04:48:36;95214.00;;;7.85;96.93
21838;BME280;11081;45.946;6.140;2023-04-03T04:51:06;95214.00;;;7.85;96.71
21838;BME280;11081;45.946;6.140;2023-04-03T04:53:37;95210.03;;;7.76;97.19
21838;BME280;11081;45.946;6.140;2023-04-03T04:56:07;95217.63;;;7.71;98.34
21838;BME280;11081;45.946;6.140;2023-04-03T04:58:37;95212.44;;;7.71;97.42
21838;BME280;11081;45.946;6.140;2023-04-03T05:01:07;95211.22;;;7.80;97.89
21838;BME280;11081;45.946;6.140;2023-04-03T05:03:43;95215.41;;;7.75;98.32
21838;BME280;11081;45.946;6.140;2023-04-03T05:06:11;95209.22;;;7.82;97.45
21838;BME280;11081;45.946;6.140;2023-04-03T05:08:41;95216.00;;;7.83;97.62
21838;BME280;11081;45.946;6.140;2023-04-03T05:11:09;95218.41;;;7.78;97.33
21838;BME280;11081;45.946;6.140;2023-04-03T05:13:38;95215.00;;;7.84;98.03
21838;BME280;11081;45.946;6.140;2023-04-03T05:16:06;95213.59;;;7.88;97.79
21838;BME280;11081;45.946;6.140;2023-04-03T05:18:35;95216.00;;;7.83;97.63
21838;BME280;11081;45.946;6.140;2023-04-03T05:21:08;95212.59;;;7.89;97.98
21838;BME280;11081;45.946;6.140;2023-04-03T05:23:36;95220.81;;;7.93;97.94
21838;BME280;11081;45.946;6.140;2023-04-03T05:26:06;95222.41;;;7.94;97.37
21838;BME280;11081;45.946;6.140;2023-04-03T05:28:35;95217.59;;;7.98;96.82
21838;BME280;11081;45.946;6.140;2023-04-03T05:31:05;95218.00;;;7.94;97.16
21838;BME280;11081;45.946;6.140;2023-04-03T05:33:35;95211.59;;;7.97;97.47
21838;BME280;11081;45.946;6.140;2023-04-03T05:36:07;95222.59;;;7.99;96.59
21838;BME280;11081;45.946;6.140;2023-04-03T05:38:41;95212.00;;;8.01;96.52
21838;BME280;11081;45.946;6.140;2023-04-03T05:41:11;95214.78;;;8.06;96.24
21838;BME280;11081;45.946;6.140;2023-04-03T05:43:39;95210.56;;;8.05;95.76
21838;BME280;11081;45.946;6.140;2023-04-03T05:46:10;95211.16;;;8.07;96.19
21838;BME280;11081;45.946;6.140;2023-04-03T05:48:40;95213.16;;;8.18;95.73
21838;BME280;11081;45.946;6.140;2023-04-03T05:51:14;95211.13;;;8.26;94.52
21838;BME280;11081;45.946;6.140;2023-04-03T05:53:44;95208.69;;;8.32;94.45
21838;BME280;11081;45.946;6.140;2023-04-03T05:56:14;95210.31;;;8.26;94.62
21838;BME280;11081;45.946;6.140;2023-04-03T05:58:42;95206.72;;;8.27;94.12
21838;BME280;11081;45.946;6.140;2023-04-03T06:01:10;95212.34;;;8.24;94.07
21838;BME280;11081;45.946;6.140;2023-04-03T06:03:39;95215.13;;;8.22;94.12
21838;BME280;11081;45.946;6.140;2023-04-03T06:06:12;95215.09;;;8.29;94.41
21838;BME280;11081;45.946;6.140;2023-04-03T06:08:40;95205.94;;;8.33;94.23
21838;BME280;11081;45.946;6.140;2023-04-03T06:11:11;95211.91;;;8.40;93.98
21838;BME280;11081;45.946;6.140;2023-04-03T06:13:40;95211.91;;;8.40;94.04
21838;BME280;11081;45.946;6.140;2023-04-03T06:16:08;95217.13;;;8.40;94.28
21838;BME280;11081;45.946;6.140;2023-04-03T06:18:38;95217.53;;;8.37;95.62
21838;BME280;11081;45.946;6.140;2023-04-03T06:21:08;95212.09;;;8.32;95.93
21838;BME280;11081;45.946;6.140;2023-04-03T06:23:36;95209.91;;;8.29;95.67
21838;BME280;11081;45.946;6.140;2023-04-03T06:26:04;95217.13;;;8.27;95.88
21838;BME280;11081;45.946;6.140;2023-04-03T06:28:33;95213.50;;;8.28;95.64
21838;BME280;11081;45.946;6.140;2023-04-03T06:31:03;95215.09;;;8.29;96.21
21838;BME280;11081;45.946;6.140;2023-04-03T06:33:31;95215.53;;;8.26;96.46
21838;BME280;11081;45.946;6.140;2023-04-03T06:35:58;95214.09;;;8.30;95.78
21838;BME280;11081;45.946;6.140;2023-04-03T06:38:26;95219.91;;;8.32;95.71
21838;BME280;11081;45.946;6.140;2023-04-03T06:40:55;95218.31;;;8.31;95.64
21838;BME280;11081;45.946;6.140;2023-04-03T06:43:23;95219.91;;;8.32;95.15
21838;BME280;11081;45.946;6.140;2023-04-03T06:45:52;95214.69;;;8.32;95.56
21838;BME280;11081;45.946;6.140;2023-04-03T06:48:21;95219.91;;;8.32;94.92
21838;BME280;11081;45.946;6.140;2023-04-03T06:50:49;95222.75;;;8.37;95.13
21838;BME280;11081;45.946;6.140;2023-04-03T06:53:17;95221.13;;;8.36;95.22
21838;BME280;11081;45.946;6.140;2023-04-03T06:55:45;95220.72;;;8.39;94.67
21838;BME280;11081;45.946;6.140;2023-04-03T06:58:14;95227.94;;;8.37;94.53
21838;BME280;11081;45.946;6.140;2023-04-03T07:00:45;95219.94;;;8.39;94.63
21838;BME280;11081;45.946;6.140;2023-04-03T07:03:13;95219.91;;;8.32;94.29
21838;BME280;11081;45.946;6.140;2023-04-03T07:05:44;95215.50;;;8.33;93.59
21838;BME280;11081;45.946;6.140;2023-04-03T07:08:12;95218.72;;;8.28;93.90
21838;BME280;11081;45.946;6.140;2023-04-03T07:10:40;95211.50;;;8.30;94.06
21838;BME280;11081;45.946;6.140;2023-04-03T07:13:08;95214.94;;;8.37;94.08
21838;BME280;11081;45.946;6.140;2023-04-03T07:15:36;95215.53;;;8.39;93.24
21838;BME280;11081;45.946;6.140;2023-04-03T07:18:04;95213.69;;;8.46;92.61
21838;BME280;11081;45.946;6.140;2023-04-03T07:20:33;95218.31;;;8.44;93.69
21838;BME280;11081;45.946;6.140;2023-04-03T07:23:02;95218.31;;;8.44;93.11
21838;BME280;11081;45.946;6.140;2023-04-03T07:25:30;95215.53;;;8.39;93.00
21838;BME280;11081;45.946;6.140;2023-04-03T07:28:00;95219.09;;;8.45;92.37
21838;BME280;11081;45.946;6.140;2023-04-03T07:30:28;95228.28;;;8.47;92.20
21838;BME280;11081;45.946;6.140;2023-04-03T07:32:56;95229.47;;;8.58;93.20
21838;BME280;11081;45.946;6.140;2023-04-03T07:35:24;95229.03;;;8.68;93.39
21838;BME280;11081;45.946;6.140;2023-04-03T07:37:52;95227.38;;;8.73;92.79
21838;BME280;11081;45.946;6.140;2023-04-03T07:40:21;95235.41;;;8.72;92.68
21838;BME280;11081;45.946;6.140;2023-04-03T07:42:49;95233.47;;;8.61;92.49
21838;BME280;11081;45.946;6.140;2023-04-03T07:45:17;95235.88;;;8.55;91.76
21838;BME280;11081;45.946;6.140;2023-04-03T07:47:46;95226.69;;;8.46;92.34
21838;BME280;11081;45.946;6.140;2023-04-03T07:50:14;95234.28;;;8.54;92.38
21838;BME280;11081;45.946;6.140;2023-04-03T07:52:42;95234.63;;;8.65;91.82
21838;BME280;11081;45.946;6.140;2023-04-03T07:55:11;95233.00;;;8.70;91.74
21838;BME280;11081;45.946;6.140;2023-04-03T07:57:41;95230.97;;;8.79;91.22
21838;BME280;11081;45.946;6.140;2023-04-03T08:00:11;95230.16;;;8.85;90.66
21838;BME280;11081;45.946;6.140;2023-04-03T08:02:40;95226.47;;;8.54;90.03
21838;BME280;11081;45.946;6.140;2023-04-03T08:05:08;95224.28;;;8.51;90.22
21838;BME280;11081;45.946;6.140;2023-04-03T08:07:37;95234.63;;;8.65;90.03
21838;BME280;11081;45.946;6.140;2023-04-03T08:10:06;95233.81;;;8.71;88.81
21838;BME280;11081;45.946;6.140;2023-04-03T08:12:34;95243.63;;;8.69;89.34
21838;BME280;11081;45.946;6.140;2023-04-03T08:15:06;95234.63;;;8.65;88.97
21838;BME280;11081;45.946;6.140;2023-04-03T08:17:34;95242.19;;;8.73;88.78
21838;BME280;11081;45.946;6.140;2023-04-03T08:20:04;95244.25;;;8.64;88.54
21838;BME280;11081;45.946;6.140;2023-04-03T08:22:33;95244.28;;;8.58;89.82
21838;BME280;11081;45.946;6.140;2023-04-03T08:25:01;95242.31;;;8.33;90.16
21838;BME280;11081;45.946;6.140;2023-04-03T08:27:29;95247.16;;;8.36;89.82
21838;BME280;11081;45.946;6.140;2023-04-03T08:29:59;95247.09;;;8.49;88.73
21838;BME280;11081;45.946;6.140;2023-04-03T08:32:29;95246.28;;;8.55;88.17
21838;BME280;11081;45.946;6.140;2023-04-03T08:34:57;95252.09;;;8.58;88.51
21838;BME280;11081;45.946;6.140;2023-04-03T08:37:25;95254.72;;;8.44;87.18
21838;BME280;11081;45.946;6.140;2023-04-03T08:39:53;95257.53;;;8.36;88.49
21838;BME280;11081;45.946;6.140;2023-04-03T08:42:34;95252.28;;;8.49;87.90
21838;BME280;11081;45.946;6.140;2023-04-03T08:45:09;95265.69;;;8.60;87.97
21838;BME280;11081;45.946;6.140;2023-04-03T08:47:43;95255.44;;;8.65;87.05
21838;BME280;11081;45.946;6.140;2023-04-03T08:50:15;95252.00;;;8.71;87.14
21838;BME280;11081;45.946;6.140;2023-04-03T08:52:45;95259.78;;;8.84;86.98
21838;BME280;11081;45.946;6.140;2023-04-03T08:55:22;95259.81;;;8.77;86.10
21838;BME280;11081;45.946;6.140;2023-04-03T08:57:56;95253.81;;;8.77;85.46
21838;BME280;11081;45.946;6.140;2023-04-03T09:00:30;95257.81;;;8.73;85.70
21838;BME280;11081;45.946;6.140;2023-04-03T09:03:01;95265.84;;;8.65;85.43
21838;BME280;11081;45.946;6.140;2023-04-03T09:05:40;95266.28;;;8.48;85.74
21838;BME280;11081;45.946;6.140;2023-04-03T09:08:18;95263.69;;;8.48;85.90
21838;BME280;11081;45.946;6.140;2023-04-03T09:10:49;95252.69;;;8.46;86.12
21838;BME280;11081;45.946;6.140;2023-04-03T09:13:24;95253.88;;;8.50;85.39
21838;BME280;11081;45.946;6.140;2023-04-03T09:15:54;95256.28;;;8.59;84.40
21838;BME280;11081;45.946;6.140;2023-04-03T09:18:28;95250.28;;;8.51;85.40
21838;BME280;11081;45.946;6.140;2023-04-03T09:21:03;95253.88;;;8.57;85.45
21838;BME280;11081;45.946;6.140;2023-04-03T09:23:42;95262.66;;;8.63;84.95
21838;BME280;11081;45.946;6.140;2023-04-03T09:26:14;95261.84;;;8.69;85.14
21838;BME280;11081;45.946;6.140;2023-04-03T09:28:44;95257.81;;;8.79;84.84
21838;BME280;11081;45.946;6.140;2023-04-03T09:31:20;95253.75;;;8.90;85.05
21838;BME280;11081;45.946;6.140;2023-04-03T09:33:54;95258.31;;;9.01;84.22
21838;BME280;11081;45.946;6.140;2023-04-03T09:36:42;95260.06;;;9.07;83.63
21838;BME280;11081;45.946;6.140;2023-04-03T09:39:13;95260.81;;;9.14;84.79
21838;BME280;11081;45.946;6.140;2023-04-03T09:41:42;95252.00;;;9.15;83.27
21838;BME280;11081;45.946;6.140;2023-04-03T09:44:29;95253.84;;;9.08;83.56
21838;BME280;11081;45.946;6.140;2023-04-03T09:46:58;95250.88;;;9.05;83.80
21838;BME280;11081;45.946;6.140;2023-04-03T09:49:28;95248.84;;;9.07;82.96
21838;BME280;11081;45.946;6.140;2023-04-03T09:51:56;95253.28;;;9.06;83.50
21838;BME280;11081;45.946;6.140;2023-04-03T09:54:36;95248.41;;;9.16;83.14
21838;BME280;11081;45.946;6.140;2023-04-03T09:57:11;95256.31;;;9.35;83.28
21838;BME280;11081;45.946;6.140;2023-04-03T09:59:45;95247.09;;;9.39;82.70
21838;BME280;11081;45.946;6.140;2023-04-03T10:02:23;95245.72;;;9.61;81.38
21838;BME280;11081;45.946;6.140;2023-04-03T10:04:57;95243.19;;;9.80;80.49
21838;BME280;11081;45.946;6.140;2023-04-03T10:07:36;95245.19;;;9.77;80.85
21838;BME280;11081;45.946;6.140;2023-04-03T10:10:18;95232.09;;;10.09;81.21
21838;BME280;11081;45.946;6.140;2023-04-03T10:12:47;95231.75;;;9.99;81.81
21838;BME280;11081;45.946;6.140;2023-04-03T10:15:16;95227.19;;;9.94;81.21
21838;BME280;11081;45.946;6.140;2023-04-03T10:17:54;95215.06;;;10.06;80.35
21838;BME280;11081;45.946;6.140;2023-04-03T10:20:34;95223.66;;;9.89;80.07
21838;BME280;11081;45.946;6.140;2023-04-03T10:23:15;95220.91;;;9.52;80.70
21838;BME280;11081;45.946;6.140;2023-04-03T10:25:54;95225.13;;;9.53;81.01
21838;BME280;11081;45.946;6.140;2023-04-03T10:28:33;95210.50;;;9.52;79.49
21838;BME280;11081;45.946;6.140;2023-04-03T10:31:10;95205.63;;;9.62;78.58
21838;BME280;11081;45.946;6.140;2023-04-03T10:33:55;95209.19;;;9.43;81.03
21838;BME280;11081;45.946;6.140;2023-04-03T10:36:34;95205.19;;;9.65;80.24
21838;BME280;11081;45.946;6.140;2023-04-03T10:39:14;95205.47;;;9.82;78.12
21838;BME280;11081;45.946;6.140;2023-04-03T10:41:54;95194.97;;;9.89;78.13
21838;BME280;11081;45.946;6.140;2023-04-03T10:44:51;95198.81;;;9.61;78.06
21838;BME280;11081;45.946;6.140;2023-04-03T10:47:22;95222.31;;;9.80;78.99
21838;BME280;11081;45.946;6.140;2023-04-03T10:49:58;95192.22;;;9.84;78.59
21838;BME280;11081;45.946;6.140;2023-04-03T10:52:35;95190.69;;;9.94;76.49
21838;BME280;11081;45.946;6.140;2023-04-03T10:55:17;95186.50;;;9.93;77.02
21838;BME280;11081;45.946;6.140;2023-04-03T10:57:53;95193.97;;;10.08;76.36
21838;BME280;11081;45.946;6.140;2023-04-03T11:00:29;95182.13;;;10.30;76.81
21838;BME280;11081;45.946;6.140;2023-04-03T11:02:59;95179.06;;;10.15;75.65
21838;BME280;11081;45.946;6.140;2023-04-03T11:05:31;95170.22;;;10.16;76.54
21838;BME280;11081;45.946;6.140;2023-04-03T11:08:09;95175.59;;;10.39;77.32
21838;BME280;11081;45.946;6.140;2023-04-03T11:10:42;95173.44;;;10.36;75.20
21838;BME280;11081;45.946;6.140;2023-04-03T11:13:13;95178.03;;;9.98;76.44
21838;BME280;11081;45.946;6.140;2023-04-03T11:15:42;95170.13;;;10.29;75.34
21838;BME280;11081;45.946;6.140;2023-04-03T11:18:13;95173.44;;;10.36;74.50
21838;BME280;11081;45.946;6.140;2023-04-03T11:20:47;95178.81;;;9.98;74.26
21838;BME280;11081;45.946;6.140;2023-04-03T11:23:22;95162.59;;;10.21;75.84
21838;BME280;11081;45.946;6.140;2023-04-03T11:26:07;95166.50;;;10.30;72.91
21838;BME280;11081;45.946;6.140;2023-04-03T11:28:38;95168.19;;;10.55;73.68
21838;BME280;11081;45.946;6.140;2023-04-03T11:31:19;95156.03;;;10.67;73.73
21838;BME280;11081;45.946;6.140;2023-04-03T11:34:00;95167.84;;;10.81;73.91
21838;BME280;11081;45.946;6.140;2023-04-03T11:36:39;95158.19;;;10.70;72.83
21838;BME280;11081;45.946;6.140;2023-04-03T11:39:19;95161.84;;;10.81;72.28
21838;BME280;11081;45.946;6.140;2023-04-03T11:41:48;95158.19;;;10.70;72.63
21838;BME280;11081;45.946;6.140;2023-04-03T11:44:32;95155.56;;;10.70;71.41
21838;BME280;11081;45.946;6.140;2023-04-03T11:47:01;95158.06;;;10.65;72.84
21838;BME280;11081;45.946;6.140;2023-04-03T11:49:58;95146.28;;;10.74;68.98
21838;BME280;11081;45.946;6.140;2023-04-03T11:52:56;95151.63;;;10.79;70.75
21838;BME280;11081;45.946;6.140;2023-04-03T11:55:44;95143.44;;;10.76;71.19
21838;BME280;11081;45.946;6.140;2023-04-03T11:58:15;95141.50;;;10.71;70.97
21838;BME280;11081;45.946;6.140;2023-04-03T12:01:04;95154.50;;;10.89;70.32
21838;BME280;11081;45.946;6.140;2023-04-03T12:03:58;95141.00;;;10.92;70.08
21838;BME280;11081;45.946;6.140;2023-04-03T12:06:50;95138.44;;;10.74;69.99
21838;BME280;11081;45.946;6.140;2023-04-03T12:09:24;95142.66;;;10.75;70.50
21838;BME280;11081;45.946;6.140;2023-04-03T12:11:54;95126.59;;;10.60;72.73
21838;BME280;11081;45.946;6.140;2023-04-03T12:14:24;95126.28;;;10.68;70.35
21838;BME280;11081;45.946;6.140;2023-04-03T12:16:54;95122.63;;;10.39;70.12
21838;BME280;11081;45.946;6.140;2023-04-03T12:19:33;95128.44;;;10.71;70.63
21838;BME280;11081;45.946;6.140;2023-04-03T12:22:13;95131.13;;;10.94;69.58
21838;BME280;11081;45.946;6.140;2023-04-03T12:24:43;95127.50;;;10.95;69.82
21838;BME280;11081;45.946;6.140;2023-04-03T12:27:28;95114.31;;;10.90;69.13
21838;BME280;11081;45.946;6.140;2023-04-03T12:30:04;95126.47;;;10.85;68.69
21838;BME280;11081;45.946;6.140;2023-04-03T12:32:52;95108.91;;;11.04;69.15
21838;BME280;11081;45.946;6.140;2023-04-03T12:35:44;95117.75;;;11.03;68.37
21838;BME280;11081;45.946;6.140;2023-04-03T12:38:58;95119.38;;;11.04;67.06
21838;BME280;11081;45.946;6.140;2023-04-03T12:41:36;95110.75;;;11.15;65.25
21838;BME280;11081;45.946;6.140;2023-04-03T12:44:17;95117.31;;;11.06;67.55
21838;BME280;11081;45.946;6.140;2023-04-03T12:46:51;95100.69;;;10.88;67.76
21838;BME280;11081;45.946;6.140;2023-04-03T12:49:33;95096.78;;;11.09;66.93
21838;BME280;11081;45.946;6.140;2023-04-03T12:52:04;95104.19;;;10.82;67.96
21838;BME280;11081;45.946;6.140;2023-04-03T12:54:36;95091.44;;;11.04;68.12
21838;BME280;11081;45.946;6.140;2023-04-03T12:57:10;95082.84;;;11.27;68.37
21838;BME280;11081;45.946;6.140;2023-04-03T12:59:40;95087.81;;;11.40;67.41
21838;BME280;11081;45.946;6.140;2023-04-03T13:02:24;95095.63;;;11.05;65.12
21838;BME280;11081;45.946;6.140;2023-04-03T13:04:54;95089.81;;;10.91;66.63
21838;BME280;11081;45.946;6.140;2023-04-03T13:07:28;95075.53;;;11.06;66.48
21838;BME280;11081;45.946;6.140;2023-04-03T13:10:03;95084.88;;;11.25;66.82
21838;BME280;11081;45.946;6.140;2023-04-03T13:12:32;95087.72;;;11.35;66.79
21838;BME280;11081;45.946;6.140;2023-04-03T13:15:12;95084.28;;;11.23;65.53
21838;BME280;11081;45.946;6.140;2023-04-03T13:17:42;95086.34;;;11.33;65.70
21838;BME280;11081;45.946;6.140;2023-04-03T13:20:17;95076.91;;;11.20;65.48
21838;BME280;11081;45.946;6.140;2023-04-03T13:22:50;95081.44;;;11.13;65.54
21838;BME280;11081;45.946;6.140;2023-04-03T13:25:21;95089.16;;;11.08;64.34
21838;BME280;11081;45.946;6.140;2023-04-03T13:27:50;95074.84;;;11.22;64.55
21838;BME280;11081;45.946;6.140;2023-04-03T13:30:37;95090.00;;;11.55;63.46
21838;BME280;11081;45.946;6.140;2023-04-03T13:33:19;95064.63;;;11.09;62.12
21838;BME280;11081;45.946;6.140;2023-04-03T13:35:55;95066.47;;;11.43;63.22